sensor_id;sensor_type;location;lat;lon;timestamp;temperature;humidity
56771;DHT22;42641;59.794;17.616;2023-03-03T00:01:11;4.80;97.10
56771;DHT22;42641;59.794;17.616;2023-03-03T00:03:37;4.80;97.00
56771;DHT22;42641;59.794;17.616;2023-03-03T00:06:05;4.80;97.30
56771;DHT22;42641;59.794;17.616;2023-03-03T00:08:34;4.70;97.20
56771;DHT22;42641;59.794;17.616;2023-03-03T00:11:01;4.70;97.40
56771;DHT22;42641;59.794;17.616;2023-03-03T00:13:30;4.70;97.40
56771;DHT22;42641;59.794;17.616;2023-03-03T00:18:47;4.70;97.40
56771;DHT22;42641;59.794;17.616;2023-03-03T00:21:32;4.70;97.40
56771;DHT22;42641;59.794;17.616;2023-03-03T00:24:18;4.60;97.50
56771;DHT22;42641;59.794;17.616;2023-03-03T00:26:50;4.60;97.50
56771;DHT22;42641;59.794;17.616;2023-03-03T00:34:42;4.60;98.20
56771;DHT22;42641;59.794;17.616;2023-03-03T00:37:26;4.60;98.10
56771;DHT22;42641;59.794;17.616;2023-03-03T00:42:50;4.50;98.20
56771;DHT22;42641;59.794;17.616;2023-03-03T00:47:50;4.50;98.10
56771;DHT22;42641;59.794;17.616;2023-03-03T00:50:24;4.50;98.40
56771;DHT22;42641;59.794;17.616;2023-03-03T00:53:12;4.40;98.30
56771;DHT22;42641;59.794;17.616;2023-03-03T00:55:39;4.40;98.30
56771;DHT22;42641;59.794;17.616;2023-03-03T00:58:05;4.40;98.50
56771;DHT22;42641;59.794;17.616;2023-03-03T01:00:37;4.40;98.40
56771;DHT22;42641;59.794;17.616;2023-03-03T01:03:07;4.30;98.90
56771;DHT22;42641;59.794;17.616;2023-03-03T01:05:35;4.30;98.80
56771;DHT22;42641;59.794;17.616;2023-03-03T01:08:02;4.30;98.70
56771;DHT22;42641;59.794;17.616;2023-03-03T01:10:31;4.20;98.90
56771;DHT22;42641;59.794;17.616;2023-03-03T01:12:59;4.20;99.00
56771;DHT22;42641;59.794;17.616;2023-03-03T01:15:25;4.20;98.90
56771;DHT22;42641;59.794;17.616;2023-03-03T01:17:54;4.20;98.90
56771;DHT22;42641;59.794;17.616;2023-03-03T01:20:20;4.20;98.90
56771;DHT22;42641;59.794;17.616;2023-03-03T01:22:47;4.10;99.10
56771;DHT22;42641;59.794;17.616;2023-03-03T01:25:13;4.00;99.30
56771;DHT22;42641;59.794;17.616;2023-03-03T01:27:39;4.00;99.30
56771;DHT22;42641;59.794;17.616;2023-03-03T01:30:07;4.00;99.50
56771;DHT22;42641;59.794;17.616;2023-03-03T01:32:34;4.00;99.70
56771;DHT22;42641;59.794;17.616;2023-03-03T01:35:00;3.90;99.60
56771;DHT22;42641;59.794;17.616;2023-03-03T01:37:26;3.90;99.70
56771;DHT22;42641;59.794;17.616;2023-03-03T01:39:53;3.90;99.60
56771;DHT22;42641;59.794;17.616;2023-03-03T01:42:20;3.90;99.90
56771;DHT22;42641;59.794;17.616;2023-03-03T01:44:47;3.80;99.90
56771;DHT22;42641;59.794;17.616;2023-03-03T01:47:25;3.80;99.90
56771;DHT22;42641;59.794;17.616;2023-03-03T01:50:06;3.90;99.90
56771;DHT22;42641;59.794;17.616;2023-03-03T01:52:39;3.90;99.90
56771;DHT22;42641;59.794;17.616;2023-03-03T01:55:13;3.90;99.90
56771;DHT22;42641;59.794;17.616;2023-03-03T01:57:44;3.90;99.90
56771;DHT22;42641;59.794;17.616;2023-03-03T02:00:11;3.80;99.90
56771;DHT22;42641;59.794;17.616;2023-03-03T02:02:41;3.80;99.90
56771;DHT22;42641;59.794;17.616;2023-03-03T02:05:09;3.80;99.90
56771;DHT22;42641;59.794;17.616;2023-03-03T02:07:36;3.80;99.90
56771;DHT22;42641;59.794;17.616;2023-03-03T02:12:37;3.70;99.90
56771;DHT22;42641;59.794;17.616;2023-03-03T02:17:44;3.70;99.90
56771;DHT22;42641;59.794;17.616;2023-03-03T02:22:52;3.60;99.90
56771;DHT22;42641;59.794;17.616;2023-03-03T02:26:22;3.50;99.90
56771;DHT22;42641;59.794;17.616;2023-03-03T02:28:31;3.60;99.90
56771;DHT22;42641;59.794;17.616;2023-03-03T02:31:05;3.60;99.90
56771;DHT22;42641;59.794;17.616;2023-03-03T02:33:32;3.60;99.90
56771;DHT22;42641;59.794;17.616;2023-03-03T02:35:58;3.60;99.90
56771;DHT22;42641;59.794;17.616;2023-03-03T02:38:54;3.60;99.90
56771;DHT22;42641;59.794;17.616;2023-03-03T02:44:03;3.50;99.90
56771;DHT22;42641;59.794;17.616;2023-03-03T02:46:42;3.60;99.90
56771;DHT22;42641;59.794;17.616;2023-03-03T02:49:10;3.50;99.90
56771;DHT22;42641;59.794;17.616;2023-03-03T02:51:38;3.50;99.90
56771;DHT22;42641;59.794;17.616;2023-03-03T02:54:06;3.50;99.90
56771;DHT22;42641;59.794;17.616;2023-03-03T02:56:33;3.40;99.90
56771;DHT22;42641;59.794;17.616;2023-03-03T02:59:00;3.40;99.90
56771;DHT22;42641;59.794;17.616;2023-03-03T03:01:27;3.40;99.90
56771;DHT22;42641;59.794;17.616;2023-03-03T03:03:57;3.40;99.90
56771;DHT22;42641;59.794;17.616;2023-03-03T03:06:24;3.40;99.90
56771;DHT22;42641;59.794;17.616;2023-03-03T03:08:50;3.40;99.90
56771;DHT22;42641;59.794;17.616;2023-03-03T03:11:17;3.40;99.90
56771;DHT22;42641;59.794;17.616;2023-03-03T03:13:43;3.30;99.90
56771;DHT22;42641;59.794;17.616;2023-03-03T03:16:10;3.30;99.90
56771;DHT22;42641;59.794;17.616;2023-03-03T03:18:36;3.30;99.90
56771;DHT22;42641;59.794;17.616;2023-03-03T03:21:08;3.20;99.90
56771;DHT22;42641;59.794;17.616;2023-03-03T03:23:35;3.20;99.90
56771;DHT22;42641;59.794;17.616;2023-03-03T03:26:02;3.20;99.90
56771;DHT22;42641;59.794;17.616;2023-03-03T03:28:29;3.20;99.90
56771;DHT22;42641;59.794;17.616;2023-03-03T03:30:56;3.10;99.90
56771;DHT22;42641;59.794;17.616;2023-03-03T03:33:23;3.00;99.90
56771;DHT22;42641;59.794;17.616;2023-03-03T03:35:51;3.00;99.90
56771;DHT22;42641;59.794;17.616;2023-03-03T03:38:18;2.90;99.90
56771;DHT22;42641;59.794;17.616;2023-03-03T03:40:44;2.90;99.90
56771;DHT22;42641;59.794;17.616;2023-03-03T03:43:11;2.90;99.90
56771;DHT22;42641;59.794;17.616;2023-03-03T03:45:37;2.90;99.90
56771;DHT22;42641;59.794;17.616;2023-03-03T03:48:04;2.90;99.90
56771;DHT22;42641;59.794;17.616;2023-03-03T03:50:31;2.80;99.90
56771;DHT22;42641;59.794;17.616;2023-03-03T03:52:58;2.80;99.90
56771;DHT22;42641;59.794;17.616;2023-03-03T03:55:24;2.70;99.90
56771;DHT22;42641;59.794;17.616;2023-03-03T03:57:52;2.70;99.90
56771;DHT22;42641;59.794;17.616;2023-03-03T04:00:19;2.70;99.90
56771;DHT22;42641;59.794;17.616;2023-03-03T04:02:51;2.60;99.90
56771;DHT22;42641;59.794;17.616;2023-03-03T04:05:18;2.60;99.90
56771;DHT22;42641;59.794;17.616;2023-03-03T04:07:46;2.60;99.90
56771;DHT22;42641;59.794;17.616;2023-03-03T04:10:13;2.60;99.90
56771;DHT22;42641;59.794;17.616;2023-03-03T04:12:39;2.50;99.90
56771;DHT22;42641;59.794;17.616;2023-03-03T04:15:12;2.50;99.90
56771;DHT22;42641;59.794;17.616;2023-03-03T04:17:39;2.40;99.90
56771;DHT22;42641;59.794;17.616;2023-03-03T04:20:07;2.50;99.90
56771;DHT22;42641;59.794;17.616;2023-03-03T04:22:34;2.40;99.90
56771;DHT22;42641;59.794;17.616;2023-03-03T04:25:05;2.40;99.90
56771;DHT22;42641;59.794;17.616;2023-03-03T04:27:36;2.40;99.90
56771;DHT22;42641;59.794;17.616;2023-03-03T04:30:05;2.40;99.90
56771;DHT22;42641;59.794;17.616;2023-03-03T04:32:32;2.40;99.90
56771;DHT22;42641;59.794;17.616;2023-03-03T04:35:01;2.40;99.90
56771;DHT22;42641;59.794;17.616;2023-03-03T04:37:28;2.40;99.90
56771;DHT22;42641;59.794;17.616;2023-03-03T04:39:55;2.30;99.90
56771;DHT22;42641;59.794;17.616;2023-03-03T04:42:22;2.30;99.90
56771;DHT22;42641;59.794;17.616;2023-03-03T04:44:49;2.30;99.90
56771;DHT22;42641;59.794;17.616;2023-03-03T04:47:15;2.30;99.90
56771;DHT22;42641;59.794;17.616;2023-03-03T04:49:42;2.30;99.90
56771;DHT22;42641;59.794;17.616;2023-03-03T04:52:08;2.40;99.90
56771;DHT22;42641;59.794;17.616;2023-03-03T04:54:36;2.40;99.90
56771;DHT22;42641;59.794;17.616;2023-03-03T04:57:03;2.30;99.90
56771;DHT22;42641;59.794;17.616;2023-03-03T04:59:30;2.30;99.90
56771;DHT22;42641;59.794;17.616;2023-03-03T05:01:56;2.30;99.90
56771;DHT22;42641;59.794;17.616;2023-03-03T05:04:23;2.30;99.90
56771;DHT22;42641;59.794;17.616;2023-03-03T05:06:49;2.30;99.90
56771;DHT22;42641;59.794;17.616;2023-03-03T05:09:15;2.30;99.90
56771;DHT22;42641;59.794;17.616;2023-03-03T05:11:42;2.20;99.90
56771;DHT22;42641;59.794;17.616;2023-03-03T05:14:08;2.20;99.90
56771;DHT22;42641;59.794;17.616;2023-03-03T05:16:34;2.20;99.90
56771;DHT22;42641;59.794;17.616;2023-03-03T05:19:01;2.30;99.90
56771;DHT22;42641;59.794;17.616;2023-03-03T05:21:27;2.30;99.90
56771;DHT22;42641;59.794;17.616;2023-03-03T05:23:53;2.30;99.90
56771;DHT22;42641;59.794;17.616;2023-03-03T05:26:20;2.30;99.90
56771;DHT22;42641;59.794;17.616;2023-03-03T05:28:47;2.20;99.90
56771;DHT22;42641;59.794;17.616;2023-03-03T05:31:13;2.20;99.90
56771;DHT22;42641;59.794;17.616;2023-03-03T05:33:39;2.10;99.90
56771;DHT22;42641;59.794;17.616;2023-03-03T05:36:06;2.10;99.90
56771;DHT22;42641;59.794;17.616;2023-03-03T05:38:33;2.10;99.90
56771;DHT22;42641;59.794;17.616;2023-03-03T05:40:59;2.10;99.90
56771;DHT22;42641;59.794;17.616;2023-03-03T05:43:25;2.10;99.90
56771;DHT22;42641;59.794;17.616;2023-03-03T05:45:55;2.10;99.90
56771;DHT22;42641;59.794;17.616;2023-03-03T05:48:22;2.10;99.90
56771;DHT22;42641;59.794;17.616;2023-03-03T05:50:49;2.10;99.90
56771;DHT22;42641;59.794;17.616;2023-03-03T05:53:15;2.10;99.90
56771;DHT22;42641;59.794;17.616;2023-03-03T05:55:41;2.10;99.90
56771;DHT22;42641;59.794;17.616;2023-03-03T05:58:08;2.20;99.90
56771;DHT22;42641;59.794;17.616;2023-03-03T06:00:34;2.20;99.90
56771;DHT22;42641;59.794;17.616;2023-03-03T06:03:01;2.10;99.90
56771;DHT22;42641;59.794;17.616;2023-03-03T06:05:27;2.20;99.90
56771;DHT22;42641;59.794;17.616;2023-03-03T06:07:54;2.20;99.90
56771;DHT22;42641;59.794;17.616;2023-03-03T06:10:20;2.10;99.90
56771;DHT22;42641;59.794;17.616;2023-03-03T06:12:51;2.20;99.90
56771;DHT22;42641;59.794;17.616;2023-03-03T06:15:17;2.20;99.90
56771;DHT22;42641;59.794;17.616;2023-03-03T06:17:44;2.20;99.90
56771;DHT22;42641;59.794;17.616;2023-03-03T06:20:11;2.20;99.90
56771;DHT22;42641;59.794;17.616;2023-03-03T06:22:37;2.30;99.90
56771;DHT22;42641;59.794;17.616;2023-03-03T06:25:04;2.30;99.90
56771;DHT22;42641;59.794;17.616;2023-03-03T06:27:30;2.40;99.90
56771;DHT22;42641;59.794;17.616;2023-03-03T06:29:57;2.40;99.90
56771;DHT22;42641;59.794;17.616;2023-03-03T06:32:23;2.60;99.90
56771;DHT22;42641;59.794;17.616;2023-03-03T06:34:49;2.60;99.90
56771;DHT22;42641;59.794;17.616;2023-03-03T06:37:16;2.70;99.90
56771;DHT22;42641;59.794;17.616;2023-03-03T06:39:42;2.80;99.90
56771;DHT22;42641;59.794;17.616;2023-03-03T06:42:09;2.90;99.90
56771;DHT22;42641;59.794;17.616;2023-03-03T06:44:35;3.00;99.90
56771;DHT22;42641;59.794;17.616;2023-03-03T06:47:02;3.10;99.90
56771;DHT22;42641;59.794;17.616;2023-03-03T06:49:28;3.20;99.90
56771;DHT22;42641;59.794;17.616;2023-03-03T06:51:55;3.30;99.90
56771;DHT22;42641;59.794;17.616;2023-03-03T06:54:27;3.40;99.90
56771;DHT22;42641;59.794;17.616;2023-03-03T06:56:57;3.50;99.90
56771;DHT22;42641;59.794;17.616;2023-03-03T06:59:26;3.60;99.90
56771;DHT22;42641;59.794;17.616;2023-03-03T07:01:53;3.70;99.90
56771;DHT22;42641;59.794;17.616;2023-03-03T07:04:31;3.80;99.90
56771;DHT22;42641;59.794;17.616;2023-03-03T07:09:45;4.00;99.90
56771;DHT22;42641;59.794;17.616;2023-03-03T07:12:24;4.00;99.90
56771;DHT22;42641;59.794;17.616;2023-03-03T07:14:57;4.10;99.90
56771;DHT22;42641;59.794;17.616;2023-03-03T07:17:26;4.20;99.90
56771;DHT22;42641;59.794;17.616;2023-03-03T07:19:52;4.30;99.90
56771;DHT22;42641;59.794;17.616;2023-03-03T07:22:22;4.40;99.90
56771;DHT22;42641;59.794;17.616;2023-03-03T07:24:53;4.40;99.90
56771;DHT22;42641;59.794;17.616;2023-03-03T07:27:23;4.50;99.90
56771;DHT22;42641;59.794;17.616;2023-03-03T07:29:52;4.50;99.90
56771;DHT22;42641;59.794;17.616;2023-03-03T07:32:27;4.60;99.90
56771;DHT22;42641;59.794;17.616;2023-03-03T07:34:59;4.70;99.90
56771;DHT22;42641;59.794;17.616;2023-03-03T07:37:34;4.70;99.90
56771;DHT22;42641;59.794;17.616;2023-03-03T07:40:05;4.80;99.90
56771;DHT22;42641;59.794;17.616;2023-03-03T07:42:39;4.90;99.90
56771;DHT22;42641;59.794;17.616;2023-03-03T07:45:31;4.90;99.90
56771;DHT22;42641;59.794;17.616;2023-03-03T07:48:29;5.00;99.90
56771;DHT22;42641;59.794;17.616;2023-03-03T07:51:02;5.00;99.90
56771;DHT22;42641;59.794;17.616;2023-03-03T07:53:29;5.00;99.90
56771;DHT22;42641;59.794;17.616;2023-03-03T07:56:00;4.90;99.90
56771;DHT22;42641;59.794;17.616;2023-03-03T07:58:35;4.90;99.90
56771;DHT22;42641;59.794;17.616;2023-03-03T08:01:40;4.90;99.90
56771;DHT22;42641;59.794;17.616;2023-03-03T08:06:51;5.00;99.90
56771;DHT22;42641;59.794;17.616;2023-03-03T08:09:36;5.00;99.90
56771;DHT22;42641;59.794;17.616;2023-03-03T08:14:36;5.10;99.90
56771;DHT22;42641;59.794;17.616;2023-03-03T08:17:25;5.10;99.90
56771;DHT22;42641;59.794;17.616;2023-03-03T08:19:55;5.20;99.90
56771;DHT22;42641;59.794;17.616;2023-03-03T08:22:32;5.10;99.90
56771;DHT22;42641;59.794;17.616;2023-03-03T08:25:01;5.30;99.90
56771;DHT22;42641;59.794;17.616;2023-03-03T08:27:27;5.30;99.90
56771;DHT22;42641;59.794;17.616;2023-03-03T08:29:54;5.40;99.90
56771;DHT22;42641;59.794;17.616;2023-03-03T08:32:20;5.50;99.90
56771;DHT22;42641;59.794;17.616;2023-03-03T08:34:47;5.50;99.90
56771;DHT22;42641;59.794;17.616;2023-03-03T08:37:13;5.60;99.90
56771;DHT22;42641;59.794;17.616;2023-03-03T08:39:39;5.60;99.90
56771;DHT22;42641;59.794;17.616;2023-03-03T08:42:06;5.60;99.90
56771;DHT22;42641;59.794;17.616;2023-03-03T08:44:32;5.60;99.90
56771;DHT22;42641;59.794;17.616;2023-03-03T08:46:59;5.70;99.90
56771;DHT22;42641;59.794;17.616;2023-03-03T08:49:25;5.70;99.90
56771;DHT22;42641;59.794;17.616;2023-03-03T08:51:51;5.80;99.90
56771;DHT22;42641;59.794;17.616;2023-03-03T08:54:18;5.80;99.80
56771;DHT22;42641;59.794;17.616;2023-03-03T08:56:44;5.90;99.90
56771;DHT22;42641;59.794;17.616;2023-03-03T08:59:10;6.00;99.90
56771;DHT22;42641;59.794;17.616;2023-03-03T09:01:37;6.10;99.80
56771;DHT22;42641;59.794;17.616;2023-03-03T09:04:03;6.20;99.60
56771;DHT22;42641;59.794;17.616;2023-03-03T09:06:30;6.30;99.00
56771;DHT22;42641;59.794;17.616;2023-03-03T09:08:56;6.30;99.40
56771;DHT22;42641;59.794;17.616;2023-03-03T09:11:27;6.40;99.00
56771;DHT22;42641;59.794;17.616;2023-03-03T09:14:10;6.40;99.10
56771;DHT22;42641;59.794;17.616;2023-03-03T09:16:40;6.40;99.00
56771;DHT22;42641;59.794;17.616;2023-03-03T09:19:28;6.30;99.00
56771;DHT22;42641;59.794;17.616;2023-03-03T09:22:00;6.30;99.20
56771;DHT22;42641;59.794;17.616;2023-03-03T09:24:29;6.30;99.20
56771;DHT22;42641;59.794;17.616;2023-03-03T09:26:56;6.30;99.90
56771;DHT22;42641;59.794;17.616;2023-03-03T09:29:32;6.20;99.90
56771;DHT22;42641;59.794;17.616;2023-03-03T09:34:50;6.00;99.90
56771;DHT22;42641;59.794;17.616;2023-03-03T09:37:36;6.00;99.90
56771;DHT22;42641;59.794;17.616;2023-03-03T09:43:11;5.70;99.90
56771;DHT22;42641;59.794;17.616;2023-03-03T09:46:04;5.50;99.90
56771;DHT22;42641;59.794;17.616;2023-03-03T09:51:23;5.20;99.90
56771;DHT22;42641;59.794;17.616;2023-03-03T09:54:14;5.10;99.90
56771;DHT22;42641;59.794;17.616;2023-03-03T09:57:10;4.90;99.90
56771;DHT22;42641;59.794;17.616;2023-03-03T10:05:13;4.30;99.90
56771;DHT22;42641;59.794;17.616;2023-03-03T10:07:51;4.00;99.90
56771;DHT22;42641;59.794;17.616;2023-03-03T10:19:01;3.10;99.90
56771;DHT22;42641;59.794;17.616;2023-03-03T10:48:34;3.10;99.90
56771;DHT22;42641;59.794;17.616;2023-03-03T10:54:17;3.10;99.90
56771;DHT22;42641;59.794;17.616;2023-03-03T11:02:20;3.20;99.90
56771;DHT22;42641;59.794;17.616;2023-03-03T11:05:27;3.20;99.90
56771;DHT22;42641;59.794;17.616;2023-03-03T11:11:06;3.10;99.90
56771;DHT22;42641;59.794;17.616;2023-03-03T11:13:52;3.10;99.90
56771;DHT22;42641;59.794;17.616;2023-03-03T11:36:10;3.40;99.90
56771;DHT22;42641;59.794;17.616;2023-03-03T11:41:22;3.40;99.90
56771;DHT22;42641;59.794;17.616;2023-03-03T11:44:02;3.40;99.90
56771;DHT22;42641;59.794;17.616;2023-03-03T11:52:38;3.50;99.90
56771;DHT22;42641;59.794;17.616;2023-03-03T11:55:14;3.60;99.90
56771;DHT22;42641;59.794;17.616;2023-03-03T11:57:49;3.60;99.90
56771;DHT22;42641;59.794;17.616;2023-03-03T12:00:30;3.60;99.90
56771;DHT22;42641;59.794;17.616;2023-03-03T12:11:22;4.10;99.90
56771;DHT22;42641;59.794;17.616;2023-03-03T12:14:06;4.20;99.90
56771;DHT22;42641;59.794;17.616;2023-03-03T12:17:10;4.30;99.90
56771;DHT22;42641;59.794;17.616;2023-03-03T12:19:42;4.30;99.90
56771;DHT22;42641;59.794;17.616;2023-03-03T12:25:04;4.50;99.90
56771;DHT22;42641;59.794;17.616;2023-03-03T12:30:39;4.90;99.90
56771;DHT22;42641;59.794;17.616;2023-03-03T12:44:20;5.00;99.90
56771;DHT22;42641;59.794;17.616;2023-03-03T12:47:10;5.30;99.90
56771;DHT22;42641;59.794;17.616;2023-03-03T13:11:54;7.80;99.90
56771;DHT22;42641;59.794;17.616;2023-03-03T13:27:54;8.50;99.90
56771;DHT22;42641;59.794;17.616;2023-03-03T13:30:26;8.80;99.90
56771;DHT22;42641;59.794;17.616;2023-03-03T13:35:49;9.50;99.90
56771;DHT22;42641;59.794;17.616;2023-03-03T13:38:25;9.90;99.90
56771;DHT22;42641;59.794;17.616;2023-03-03T13:41:01;9.90;99.90
56771;DHT22;42641;59.794;17.616;2023-03-03T13:46:33;10.40;99.90
56771;DHT22;42641;59.794;17.616;2023-03-03T13:49:19;10.70;99.10
56771;DHT22;42641;59.794;17.616;2023-03-03T13:51:56;10.50;98.90
56771;DHT22;42641;59.794;17.616;2023-03-03T13:57:43;10.30;98.30
56771;DHT22;42641;59.794;17.616;2023-03-03T14:00:09;10.20;98.00
56771;DHT22;42641;59.794;17.616;2023-03-03T14:08:19;8.90;99.40
56771;DHT22;42641;59.794;17.616;2023-03-03T14:11:09;8.60;99.90
56771;DHT22;42641;59.794;17.616;2023-03-03T14:19:31;8.40;99.90
56771;DHT22;42641;59.794;17.616;2023-03-03T14:25:00;8.20;99.90
56771;DHT22;42641;59.794;17.616;2023-03-03T14:27:40;8.10;99.90
56771;DHT22;42641;59.794;17.616;2023-03-03T14:33:01;7.90;99.90
56771;DHT22;42641;59.794;17.616;2023-03-03T14:35:36;7.80;99.90
56771;DHT22;42641;59.794;17.616;2023-03-03T14:38:14;7.80;99.90
56771;DHT22;42641;59.794;17.616;2023-03-03T14:40:43;7.80;99.90
56771;DHT22;42641;59.794;17.616;2023-03-03T14:43:25;7.80;99.90
56771;DHT22;42641;59.794;17.616;2023-03-03T14:45:54;7.70;99.90
56771;DHT22;42641;59.794;17.616;2023-03-03T14:48:24;7.70;99.90
56771;DHT22;42641;59.794;17.616;2023-03-03T14:50:51;7.70;99.90
56771;DHT22;42641;59.794;17.616;2023-03-03T14:55:46;7.80;99.90
56771;DHT22;42641;59.794;17.616;2023-03-03T14:58:27;7.80;99.70
56771;DHT22;42641;59.794;17.616;2023-03-03T15:01:15;7.80;99.50
56771;DHT22;42641;59.794;17.616;2023-03-03T15:06:55;7.80;99.50
56771;DHT22;42641;59.794;17.616;2023-03-03T15:11:54;7.90;99.30
56771;DHT22;42641;59.794;17.616;2023-03-03T15:25:43;7.60;99.80
56771;DHT22;42641;59.794;17.616;2023-03-03T15:33:31;7.40;99.90
56771;DHT22;42641;59.794;17.616;2023-03-03T15:36:46;7.40;99.90
56771;DHT22;42641;59.794;17.616;2023-03-03T15:47:06;7.30;99.90
56771;DHT22;42641;59.794;17.616;2023-03-03T15:50:02;7.30;99.90
56771;DHT22;42641;59.794;17.616;2023-03-03T16:03:42;7.40;99.90
56771;DHT22;42641;59.794;17.616;2023-03-03T16:11:44;7.40;99.90
56771;DHT22;42641;59.794;17.616;2023-03-03T16:14:47;7.50;99.90
56771;DHT22;42641;59.794;17.616;2023-03-03T16:19:54;7.50;99.90
56771;DHT22;42641;59.794;17.616;2023-03-03T16:22:55;7.50;99.90
56771;DHT22;42641;59.794;17.616;2023-03-03T16:28:09;7.60;96.60
56771;DHT22;42641;59.794;17.616;2023-03-03T16:36:31;7.60;92.60
56771;DHT22;42641;59.794;17.616;2023-03-03T16:39:13;7.60;92.80
56771;DHT22;42641;59.794;17.616;2023-03-03T16:41:59;7.40;91.90
56771;DHT22;42641;59.794;17.616;2023-03-03T16:50:12;7.20;90.40
56771;DHT22;42641;59.794;17.616;2023-03-03T16:53:14;7.10;90.50
56771;DHT22;42641;59.794;17.616;2023-03-03T16:58:40;7.00;89.60
56771;DHT22;42641;59.794;17.616;2023-03-03T17:03:58;6.80;89.20
56771;DHT22;42641;59.794;17.616;2023-03-03T17:09:50;6.70;89.60
56771;DHT22;42641;59.794;17.616;2023-03-03T17:15:11;6.50;89.60
56771;DHT22;42641;59.794;17.616;2023-03-03T17:17:46;6.60;89.10
56771;DHT22;42641;59.794;17.616;2023-03-03T17:34:17;6.30;90.10
56771;DHT22;42641;59.794;17.616;2023-03-03T17:40:24;6.20;90.40
56771;DHT22;42641;59.794;17.616;2023-03-03T17:43:18;6.20;89.00
56771;DHT22;42641;59.794;17.616;2023-03-03T17:45:48;6.10;89.10
56771;DHT22;42641;59.794;17.616;2023-03-03T17:48:29;6.10;88.20
56771;DHT22;42641;59.794;17.616;2023-03-03T17:56:32;6.10;84.80
56771;DHT22;42641;59.794;17.616;2023-03-03T18:23:40;5.50;87.20
56771;DHT22;42641;59.794;17.616;2023-03-03T18:32:04;5.30;89.60
56771;DHT22;42641;59.794;17.616;2023-03-03T18:34:41;5.30;87.50
56771;DHT22;42641;59.794;17.616;2023-03-03T18:42:40;5.10;88.00
56771;DHT22;42641;59.794;17.616;2023-03-03T18:50:39;5.10;87.60
56771;DHT22;42641;59.794;17.616;2023-03-03T18:55:58;5.00;87.80
56771;DHT22;42641;59.794;17.616;2023-03-03T18:58:35;4.90;89.60
56771;DHT22;42641;59.794;17.616;2023-03-03T19:01:32;4.90;88.80
56771;DHT22;42641;59.794;17.616;2023-03-03T19:04:16;4.80;89.20
56771;DHT22;42641;59.794;17.616;2023-03-03T19:09:18;4.70;88.90
56771;DHT22;42641;59.794;17.616;2023-03-03T19:11:51;4.70;89.00
56771;DHT22;42641;59.794;17.616;2023-03-03T19:16:54;4.60;89.00
56771;DHT22;42641;59.794;17.616;2023-03-03T19:19:23;4.60;90.10
56771;DHT22;42641;59.794;17.616;2023-03-03T19:22:26;4.50;90.10
56771;DHT22;42641;59.794;17.616;2023-03-03T19:25:25;4.50;89.70
56771;DHT22;42641;59.794;17.616;2023-03-03T19:30:55;4.40;90.30
56771;DHT22;42641;59.794;17.616;2023-03-03T19:34:09;4.40;90.00
56771;DHT22;42641;59.794;17.616;2023-03-03T19:50:59;4.20;90.30
56771;DHT22;42641;59.794;17.616;2023-03-03T19:53:44;4.10;90.40
56771;DHT22;42641;59.794;17.616;2023-03-03T19:56:26;4.10;90.50
56771;DHT22;42641;59.794;17.616;2023-03-03T20:02:05;4.00;90.20
56771;DHT22;42641;59.794;17.616;2023-03-03T20:05:12;4.00;90.00
56771;DHT22;42641;59.794;17.616;2023-03-03T20:07:53;4.00;90.50
56771;DHT22;42641;59.794;17.616;2023-03-03T20:13:33;3.90;90.10
56771;DHT22;42641;59.794;17.616;2023-03-03T20:26:56;3.70;90.30
56771;DHT22;42641;59.794;17.616;2023-03-03T20:35:36;3.60;90.60
56771;DHT22;42641;59.794;17.616;2023-03-03T20:38:21;3.60;91.10
56771;DHT22;42641;59.794;17.616;2023-03-03T20:46:25;3.40;91.60
56771;DHT22;42641;59.794;17.616;2023-03-03T20:49:17;3.30;91.40
56771;DHT22;42641;59.794;17.616;2023-03-03T20:59:32;3.10;92.30
56771;DHT22;42641;59.794;17.616;2023-03-03T21:07:34;3.20;91.60
56771;DHT22;42641;59.794;17.616;2023-03-03T21:10:16;3.10;92.10
56771;DHT22;42641;59.794;17.616;2023-03-03T21:12:45;3.00;92.20
56771;DHT22;42641;59.794;17.616;2023-03-03T21:17:52;2.90;92.60
56771;DHT22;42641;59.794;17.616;2023-03-03T21:22:56;2.90;91.70
56771;DHT22;42641;59.794;17.616;2023-03-03T21:25:51;2.90;91.90
56771;DHT22;42641;59.794;17.616;2023-03-03T21:31:13;2.80;92.00
56771;DHT22;42641;59.794;17.616;2023-03-03T21:33:48;2.80;91.80
56771;DHT22;42641;59.794;17.616;2023-03-03T21:36:18;2.80;92.00
56771;DHT22;42641;59.794;17.616;2023-03-03T21:38:45;2.80;92.00
56771;DHT22;42641;59.794;17.616;2023-03-03T21:41:13;2.80;92.10
56771;DHT22;42641;59.794;17.616;2023-03-03T21:43:52;2.80;91.90
56771;DHT22;42641;59.794;17.616;2023-03-03T21:46:20;2.70;91.80
56771;DHT22;42641;59.794;17.616;2023-03-03T21:48:49;2.70;92.00
56771;DHT22;42641;59.794;17.616;2023-03-03T21:51:15;2.60;92.50
56771;DHT22;42641;59.794;17.616;2023-03-03T21:53:42;2.60;92.50
56771;DHT22;42641;59.794;17.616;2023-03-03T21:56:12;2.60;92.30
56771;DHT22;42641;59.794;17.616;2023-03-03T21:58:40;2.60;92.00
56771;DHT22;42641;59.794;17.616;2023-03-03T22:01:06;2.70;92.10
56771;DHT22;42641;59.794;17.616;2023-03-03T22:03:33;2.60;92.50
56771;DHT22;42641;59.794;17.616;2023-03-03T22:06:00;2.50;92.40
56771;DHT22;42641;59.794;17.616;2023-03-03T22:08:30;2.40;92.30
56771;DHT22;42641;59.794;17.616;2023-03-03T22:10:56;2.40;92.60
56771;DHT22;42641;59.794;17.616;2023-03-03T22:13:24;2.40;92.90
56771;DHT22;42641;59.794;17.616;2023-03-03T22:15:51;2.40;92.70
56771;DHT22;42641;59.794;17.616;2023-03-03T22:18:18;2.30;92.70
56771;DHT22;42641;59.794;17.616;2023-03-03T22:20:45;2.20;92.70
56771;DHT22;42641;59.794;17.616;2023-03-03T22:23:13;2.30;92.70
56771;DHT22;42641;59.794;17.616;2023-03-03T22:25:40;2.20;92.90
56771;DHT22;42641;59.794;17.616;2023-03-03T22:28:07;2.20;92.80
56771;DHT22;42641;59.794;17.616;2023-03-03T22:30:33;2.20;92.80
56771;DHT22;42641;59.794;17.616;2023-03-03T22:33:00;2.20;93.20
56771;DHT22;42641;59.794;17.616;2023-03-03T22:35:26;2.10;93.30
56771;DHT22;42641;59.794;17.616;2023-03-03T22:37:53;2.00;93.40
56771;DHT22;42641;59.794;17.616;2023-03-03T22:40:19;2.00;93.50
56771;DHT22;42641;59.794;17.616;2023-03-03T22:42:46;2.00;93.00
56771;DHT22;42641;59.794;17.616;2023-03-03T22:45:12;2.00;93.40
56771;DHT22;42641;59.794;17.616;2023-03-03T22:47:39;2.00;93.40
56771;DHT22;42641;59.794;17.616;2023-03-03T22:50:06;1.90;93.60
56771;DHT22;42641;59.794;17.616;2023-03-03T22:52:33;1.80;93.60
56771;DHT22;42641;59.794;17.616;2023-03-03T22:54:59;1.80;93.40
56771;DHT22;42641;59.794;17.616;2023-03-03T22:57:26;1.80;93.30
56771;DHT22;42641;59.794;17.616;2023-03-03T22:59:52;1.80;93.30
56771;DHT22;42641;59.794;17.616;2023-03-03T23:02:19;1.80;93.30
56771;DHT22;42641;59.794;17.616;2023-03-03T23:04:45;1.80;93.70
56771;DHT22;42641;59.794;17.616;2023-03-03T23:07:11;1.70;94.10